This demonstration page uses our WeatherBlox Daily Observations layout. Learn more.

Hourly Observations for December 18, 2017

Temp ( °F °C ) Dew Point ( °F °C ) Humidity (%) Winds ( mph kmh ) Pressure ( in mb ) Visibility ( mi km ) Precip ( " mm )
12:54 am 00:54 Clear with Mist and Fog 28 -2.2 24 -4.4 85 85 Calm 30.02 1017 5 8.0467 0 0
1:54 am 01:54 Clear 28 -2.2 24 -4.4 85 85 Calm 30.02 1017 7 11.26538 0 0
2:54 am 02:54 Clear with Mist and Fog 25 -3.9 23 -5 92 92 SSE 5 7 30.02 1017 6 9.65604 0 0
3:54 am 03:54 Clear 26 -3.3 24 -4.4 92 92 SSE 7 11 30 1016 7 11.26538 0 0
4:54 am 04:54 Clear 25 -3.9 23 -5 92 92 SSE 6 9 30 1016 7 11.26538 0 0
5:54 am 05:54 Clear 31 -0.6 28 -2.2 89 89 SSW 10 17 29.99 1016 10 16.0934 0 0
6:54 am 06:54 Clear 31 -0.6 27 -2.8 85 85 SSW 9 15 29.99 1016 10 16.0934 0 0
7:54 am 07:54 Sunny 31 -0.6 26 -3.3 82 82 SW 10 17 30 1016 10 16.0934 0 0
8:54 am 08:54 Sunny 33 0.6 26 -3.3 75 75 WSW 5 7 30.01 1016 10 16.0934 0 0
9:54 am 09:54 Sunny 36 2.2 27 -2.8 70 70 WSW 7 11 30.02 1017 10 16.0934 0 0
10:54 am 10:54 Sunny 42 5.6 29 -1.7 60 60 SW 10 17 30.02 1017 10 16.0934 0 0
11:54 am 11:54 Sunny 48 8.9 28 -2.2 46 46 WSW 9 15 29.98 1015 10 16.0934 0 0
12:54 pm 12:54 Sunny 53 11.7 26 -3.3 35 35 SW 13 20 29.94 1014 10 16.0934 0 0
1:54 pm 13:54 Sunny 55 12.8 24 -4.4 30 30 SW 17 28 29.9 1012 10 16.0934 0 0
2:54 pm 14:54 Sunny 55 12.8 28 -2.2 35 35 SW 20 31 29.88 1012 10 16.0934 0 0
3:54 pm 15:54 Sunny 55 12.8 29 -1.7 37 37 SSW 13 20 29.88 1012 10 16.0934 0 0
4:54 pm 16:54 Sunny 51 10.6 31 -0.6 46 46 SSW 10 17 29.9 1013 10 16.0934 0 0
5:54 pm 17:54 Clear 48 8.9 31 -0.6 52 52 SSW 9 15 29.9 1013 10 16.0934 0 0
6:54 pm 18:54 Clear 46 7.8 31 -0.6 56 56 SSW 6 9 29.92 1013 10 16.0934 0 0
7:54 pm 19:54 Clear 44 6.7 31 -0.6 60 60 SSW 8 13 29.93 1013 10 16.0934 0 0
8:54 pm 20:54 Clear 44 6.7 31 -0.6 60 60 SW 7 11 29.92 1013 10 16.0934 0 0
9:54 pm 21:54 Clear 43 6.1 31 -0.6 63 63 SSW 5 7 29.92 1013 10 16.0934 0 0
10:54 pm 22:54 Clear 42 5.6 31 -0.6 65 65 Calm 29.93 1013 10 16.0934 0 0
11:54 pm 23:54 Clear 38 3.3 30 -1.1 73 73 ESE 3 6 29.93 1014 10 16.0934 0 0

Powered by AerisWeather